createdAt,value
2022-08-16T00:03:48.374Z,1.70
2022-08-16T00:06:25.109Z,1.40
2022-08-16T00:09:25.123Z,1.33
2022-08-16T00:12:01.313Z,1.13
2022-08-16T00:15:03.871Z,1.30
2022-08-16T00:17:56.819Z,1.30
2022-08-16T00:20:50.761Z,1.25
2022-08-16T00:23:39.959Z,1.20
2022-08-16T00:27:23.943Z,1.45
2022-08-16T00:30:19.267Z,1.13
2022-08-16T00:33:33.052Z,1.17
2022-08-16T00:36:27.472Z,1.08
2022-08-16T00:41:53.083Z,1.50
2022-08-16T00:44:41.496Z,1.30
2022-08-16T00:47:30.111Z,1.10
2022-08-16T00:50:17.770Z,1.25
2022-08-16T00:52:56.687Z,1.63
2022-08-16T00:55:37.691Z,1.10
2022-08-16T00:58:36.731Z,1.30
2022-08-16T01:01:22.877Z,1.35
2022-08-16T01:04:01.534Z,1.00
2022-08-16T01:07:28.789Z,1.20
2022-08-16T01:10:32.735Z,1.45
2022-08-16T01:13:43.246Z,1.50
2022-08-16T01:20:24.114Z,1.20
2022-08-16T01:23:13.525Z,1.00
2022-08-16T01:27:03.880Z,1.55
2022-08-16T01:29:56.734Z,1.38
2022-08-16T01:32:42.880Z,1.25
2022-08-16T01:35:29.261Z,1.60
2022-08-16T01:38:25.968Z,1.20
2022-08-16T01:41:23.817Z,1.23
2022-08-16T01:44:10.642Z,1.25
2022-08-16T01:47:01.096Z,1.25
2022-08-16T01:50:41.868Z,1.40
2022-08-16T01:53:30.245Z,1.50
2022-08-16T01:56:06.374Z,1.35
2022-08-16T02:01:40.786Z,1.73
2022-08-16T02:04:49.558Z,1.60
2022-08-16T02:07:31.992Z,1.20
2022-08-16T02:10:12.139Z,1.10
2022-08-16T02:12:59.857Z,1.30
2022-08-16T02:18:34.657Z,1.30
2022-08-16T02:22:09.383Z,1.30
2022-08-16T02:24:57.020Z,1.10
2022-08-16T02:27:32.281Z,1.30
2022-08-16T02:30:37.503Z,1.52
2022-08-16T02:33:24.660Z,1.13
2022-08-16T02:37:51.240Z,1.35
2022-08-16T02:40:43.056Z,1.75
2022-08-16T02:43:42.225Z,1.00
2022-08-16T02:46:30.124Z,1.65
2022-08-16T02:50:54.983Z,1.52
2022-08-16T02:53:43.736Z,1.23
2022-08-16T02:56:41.275Z,1.20
2022-08-16T03:00:34.046Z,1.50
2022-08-16T03:04:28.864Z,1.50
2022-08-16T03:06:43.380Z,1.70
2022-08-16T03:10:36.932Z,1.63
2022-08-16T03:14:28.385Z,1.55
2022-08-16T03:17:06.174Z,1.10
2022-08-16T03:20:00.179Z,0.83
2022-08-16T03:22:38.817Z,1.70
2022-08-16T03:25:43.996Z,1.67
2022-08-16T03:28:23.631Z,1.63
2022-08-16T03:31:01.048Z,1.52
2022-08-16T03:35:00.894Z,1.35
2022-08-16T03:38:02.435Z,2.05
2022-08-16T03:40:40.024Z,1.50
2022-08-16T03:43:21.446Z,1.52
2022-08-16T03:46:48.426Z,1.42
2022-08-16T03:49:51.582Z,1.83
2022-08-16T03:52:31.524Z,1.73
2022-08-16T03:55:10.480Z,1.50
2022-08-16T03:57:53.879Z,2.13
2022-08-16T04:00:36.077Z,1.50
2022-08-16T04:03:33.406Z,1.67
2022-08-16T04:06:16.119Z,1.58
2022-08-16T04:09:04.455Z,1.80
2022-08-16T04:11:48.222Z,1.50
2022-08-16T04:14:48.717Z,1.27
2022-08-16T04:17:26.967Z,1.60
2022-08-16T04:20:40.593Z,1.60
2022-08-16T04:26:30.822Z,1.63
2022-08-16T04:29:16.296Z,1.95
2022-08-16T04:31:59.964Z,1.55
2022-08-16T04:34:42.715Z,1.63
2022-08-16T04:37:42.375Z,1.70
2022-08-16T04:40:27.500Z,1.55
2022-08-16T04:43:11.791Z,1.88
2022-08-16T04:46:00.370Z,1.65
2022-08-16T04:53:56.805Z,1.42
2022-08-16T04:56:49.223Z,1.58
2022-08-16T04:59:33.144Z,1.50
2022-08-16T05:02:41.426Z,1.52
2022-08-16T05:05:23.635Z,1.48
2022-08-16T05:08:00.383Z,1.50
2022-08-16T05:10:51.550Z,1.67
2022-08-16T05:13:40.379Z,1.40
2022-08-16T05:16:38.564Z,1.30
2022-08-16T05:24:45.259Z,1.58
2022-08-16T05:27:24.092Z,1.40
2022-08-16T05:30:34.539Z,1.48
2022-08-16T05:33:02.931Z,1.50
2022-08-16T05:35:55.368Z,1.90
2022-08-16T05:38:40.878Z,1.70
2022-08-16T05:57:08.455Z,1.90
2022-08-16T05:59:59.665Z,1.75
2022-08-16T06:02:38.544Z,1.73
2022-08-16T06:05:26.401Z,1.85
2022-08-16T06:08:44.942Z,1.73
2022-08-16T06:11:35.539Z,1.80
2022-08-16T06:14:15.643Z,1.92
2022-08-16T06:17:05.556Z,2.20
2022-08-16T06:28:16.964Z,1.77
2022-08-16T06:31:56.543Z,1.90
2022-08-16T06:34:55.318Z,2.13
2022-08-16T06:37:52.445Z,1.90
2022-08-16T06:44:44.314Z,2.40
2022-08-16T06:47:20.555Z,2.30
2022-08-16T06:58:22.648Z,1.80
2022-08-16T07:01:44.911Z,1.75
2022-08-16T07:05:27.261Z,2.10
2022-08-16T07:08:34.978Z,1.80
2022-08-16T07:11:10.330Z,1.83
2022-08-16T07:18:11.793Z,2.38
2022-08-16T07:26:25.399Z,2.03
2022-08-16T07:29:08.832Z,2.00
2022-08-16T07:32:02.016Z,1.95
2022-08-16T07:34:48.378Z,2.28
2022-08-16T07:37:24.192Z,1.85
2022-08-16T07:39:59.298Z,2.00
2022-08-16T07:42:35.148Z,2.65
2022-08-16T07:49:58.144Z,2.35
2022-08-16T07:52:44.371Z,2.42
2022-08-16T07:55:20.445Z,2.47
2022-08-16T08:02:01.038Z,2.83
2022-08-16T08:08:57.578Z,2.50
2022-08-16T08:12:31.857Z,1.80
2022-08-16T08:19:26.491Z,2.42
2022-08-16T08:22:09.947Z,2.28
2022-08-16T08:24:59.115Z,2.35
2022-08-16T08:31:47.618Z,2.75
2022-08-16T08:38:45.985Z,2.42
2022-08-16T08:49:55.702Z,2.30
2022-08-16T08:56:46.808Z,2.83
2022-08-16T09:00:50.929Z,3.17
2022-08-16T09:08:50.255Z,2.35
2022-08-16T09:11:38.902Z,2.80
2022-08-16T09:14:50.891Z,2.78
2022-08-16T09:20:34.816Z,2.60
2022-08-16T09:23:38.697Z,2.75
2022-08-16T09:26:44.053Z,2.58
2022-08-16T09:33:32.519Z,1.98
2022-08-16T09:40:32.941Z,2.38
2022-08-16T09:43:46.568Z,2.40
2022-08-16T09:46:44.663Z,2.50
2022-08-16T09:49:12.095Z,2.40
2022-08-16T09:51:46.992Z,2.20
2022-08-16T09:54:25.022Z,2.40
2022-08-16T09:57:14.083Z,2.45
2022-08-16T09:59:56.211Z,2.55
2022-08-16T10:02:32.142Z,2.35
2022-08-16T10:05:16.511Z,2.10
2022-08-16T10:07:56.752Z,2.45
2022-08-16T10:10:31.477Z,2.40
2022-08-16T10:13:19.521Z,2.78
2022-08-16T10:16:48.961Z,2.55
2022-08-16T10:19:25.969Z,3.17
2022-08-16T10:22:05.179Z,2.58
2022-08-16T10:27:19.335Z,2.47
2022-08-16T10:28:43.408Z,2.40
2022-08-16T10:31:45.733Z,2.70
2022-08-16T10:34:31.517Z,2.03
2022-08-16T10:37:10.669Z,2.60
2022-08-16T10:39:45.533Z,2.63
2022-08-16T10:42:23.632Z,2.28
2022-08-16T10:49:18.144Z,2.67
2022-08-16T10:56:55.964Z,2.55
2022-08-16T10:59:38.367Z,2.60
2022-08-16T11:02:59.079Z,2.20
2022-08-16T11:05:14.134Z,2.17
2022-08-16T11:08:12.425Z,2.20
2022-08-16T11:11:04.541Z,2.13
2022-08-16T11:13:59.548Z,2.55
2022-08-16T11:27:18.516Z,2.28
2022-08-16T11:38:55.327Z,2.45
2022-08-16T11:45:42.414Z,2.20
2022-08-16T11:48:20.042Z,1.98
2022-08-16T11:50:58.472Z,2.00
2022-08-16T11:53:36.057Z,2.28
2022-08-16T11:56:10.773Z,2.17
2022-08-16T11:58:51.469Z,2.60
2022-08-16T12:01:59.551Z,2.30
2022-08-16T12:04:38.578Z,2.47
2022-08-16T12:07:16.338Z,1.88
2022-08-16T12:09:56.568Z,2.33
2022-08-16T12:12:32.879Z,2.03
2022-08-16T12:19:35.140Z,2.10
2022-08-16T12:22:18.923Z,2.20
2022-08-16T12:29:20.340Z,2.13
2022-08-16T12:32:01.205Z,2.40
2022-08-16T12:34:52.931Z,2.70
2022-08-16T12:41:45.003Z,2.22
2022-08-16T12:45:12.412Z,2.72
2022-08-16T12:49:01.865Z,2.65
2022-08-16T12:51:59.000Z,2.50
2022-08-16T12:54:40.811Z,2.08
2022-08-16T12:57:15.498Z,2.33
2022-08-16T12:59:56.209Z,2.20
2022-08-16T13:06:46.221Z,2.60
2022-08-16T13:09:26.698Z,2.25
2022-08-16T13:13:20.779Z,2.40
2022-08-16T13:16:10.734Z,2.60
2022-08-16T13:18:54.845Z,2.53
2022-08-16T13:21:29.334Z,2.47
2022-08-16T13:24:05.879Z,2.50
2022-08-16T13:35:21.642Z,2.78
2022-08-16T13:37:57.290Z,2.60
2022-08-16T13:40:33.311Z,2.53
2022-08-16T13:43:07.995Z,2.63
2022-08-16T13:45:45.883Z,3.10
2022-08-16T13:49:43.470Z,2.90
2022-08-16T13:56:37.728Z,2.83
2022-08-16T13:59:21.244Z,2.78
2022-08-16T14:02:04.280Z,2.58
2022-08-16T14:04:43.007Z,2.50
2022-08-16T14:07:24.701Z,2.42
2022-08-16T14:10:00.001Z,2.78
2022-08-16T14:12:37.923Z,2.60
2022-08-16T14:15:16.144Z,3.20
2022-08-16T14:18:43.690Z,2.45
2022-08-16T14:21:18.581Z,2.50
2022-08-16T14:23:56.655Z,2.70
2022-08-16T14:26:32.591Z,2.55
2022-08-16T14:29:10.523Z,2.70
2022-08-16T14:31:44.988Z,2.70
2022-08-16T14:34:19.430Z,2.75
2022-08-16T14:36:54.840Z,2.63
2022-08-16T14:39:32.588Z,2.65
2022-08-16T14:42:18.098Z,3.05
2022-08-16T14:44:57.267Z,3.28
2022-08-16T14:48:33.789Z,2.72
2022-08-16T14:51:09.893Z,2.80
2022-08-16T14:54:31.754Z,2.80
2022-08-16T14:57:09.328Z,2.67
2022-08-16T14:59:45.326Z,2.58
2022-08-16T15:02:34.520Z,2.85
2022-08-16T15:05:11.567Z,2.58
2022-08-16T15:08:36.644Z,2.83
2022-08-16T15:11:58.968Z,2.97
2022-08-16T15:18:46.946Z,2.50
2022-08-16T15:21:32.458Z,2.75
2022-08-16T15:24:07.520Z,2.75
2022-08-16T15:26:51.487Z,2.97
2022-08-16T15:29:27.364Z,2.75
2022-08-16T15:32:04.363Z,2.78
2022-08-16T15:47:06.908Z,2.72
2022-08-16T16:04:09.142Z,2.45
2022-08-16T16:06:54.844Z,2.47
2022-08-16T16:09:36.947Z,2.55
2022-08-16T16:12:42.095Z,2.53
2022-08-16T16:15:07.807Z,2.38
2022-08-16T16:17:42.511Z,2.42
2022-08-16T16:20:18.761Z,2.60
2022-08-16T16:22:54.636Z,2.45
2022-08-16T16:25:38.477Z,2.70
2022-08-16T16:29:05.272Z,2.35
2022-08-16T16:31:12.080Z,2.47
2022-08-16T16:33:52.989Z,2.88
2022-08-16T16:36:33.508Z,2.70
2022-08-16T16:39:11.703Z,2.67
2022-08-16T16:41:50.261Z,2.10
2022-08-16T16:44:33.801Z,2.22
2022-08-16T16:47:10.899Z,2.65
2022-08-16T16:49:45.312Z,2.50
2022-08-16T16:56:37.531Z,2.30
2022-08-16T16:59:11.656Z,2.40
2022-08-16T17:01:59.848Z,2.00
2022-08-16T17:05:04.396Z,2.50
2022-08-16T17:07:50.525Z,2.50
2022-08-16T17:10:46.606Z,2.35
2022-08-16T17:13:25.807Z,2.95
2022-08-16T17:16:02.260Z,2.60
2022-08-16T17:22:54.480Z,2.72
2022-08-16T17:26:22.283Z,2.40
2022-08-16T17:29:11.196Z,2.35
2022-08-16T17:31:50.529Z,2.58
2022-08-16T17:34:32.899Z,2.13
2022-08-16T17:41:32.529Z,2.58
2022-08-16T17:44:09.351Z,2.60
2022-08-16T17:46:52.537Z,2.53
2022-08-16T17:49:27.281Z,2.50
2022-08-16T17:52:03.065Z,2.20
2022-08-16T17:54:37.563Z,2.25
2022-08-16T17:57:12.542Z,2.20
2022-08-16T17:59:50.671Z,2.20
2022-08-16T18:02:43.884Z,2.05
2022-08-16T18:05:45.425Z,2.13
2022-08-16T18:08:21.409Z,2.70
2022-08-16T18:11:03.443Z,2.70
2022-08-16T18:14:09.170Z,2.08
2022-08-16T18:16:48.793Z,1.90
2022-08-16T18:19:44.776Z,2.00
2022-08-16T18:22:26.927Z,2.50
2022-08-16T18:25:08.362Z,2.25
2022-08-16T18:27:43.149Z,2.13
2022-08-16T18:30:18.099Z,1.77
2022-08-16T18:32:55.387Z,2.10
2022-08-16T18:35:30.793Z,2.22
2022-08-16T18:38:05.655Z,1.70
2022-08-16T18:40:41.695Z,1.92
2022-08-16T18:43:19.913Z,2.42
2022-08-16T18:45:56.749Z,2.10
2022-08-16T18:48:37.805Z,1.85
2022-08-16T18:51:20.301Z,2.10
2022-08-16T18:58:36.763Z,2.00
2022-08-16T19:01:11.331Z,1.83
2022-08-16T19:03:48.473Z,1.98
2022-08-16T19:06:23.063Z,2.00
2022-08-16T19:09:02.781Z,1.83
2022-08-16T19:11:38.208Z,2.20
2022-08-16T19:14:12.953Z,2.40
2022-08-16T19:17:20.261Z,1.77
2022-08-16T19:19:56.931Z,1.98
2022-08-16T19:23:02.211Z,2.10
2022-08-16T19:25:49.621Z,2.40
2022-08-16T19:28:51.138Z,2.03
2022-08-16T19:31:38.840Z,1.77
2022-08-16T19:34:17.919Z,2.38
2022-08-16T19:36:57.355Z,2.33
2022-08-16T19:39:33.412Z,2.35
2022-08-16T19:42:18.027Z,2.42
2022-08-16T19:48:06.163Z,2.28
2022-08-16T19:50:43.565Z,2.90
2022-08-16T19:57:24.159Z,2.35
2022-08-16T20:00:01.843Z,2.30
2022-08-16T20:07:05.554Z,2.20
2022-08-16T20:09:42.659Z,2.40
2022-08-16T20:13:01.831Z,2.05
2022-08-16T20:15:52.121Z,2.50
2022-08-16T20:18:29.618Z,2.60
2022-08-16T20:21:05.310Z,2.20
2022-08-16T20:23:40.246Z,2.65
2022-08-16T20:26:19.711Z,2.08
2022-08-16T20:28:56.084Z,2.40
2022-08-16T20:31:57.564Z,2.25
2022-08-16T20:34:39.119Z,2.13
2022-08-16T20:37:44.180Z,2.90
2022-08-16T20:40:33.792Z,2.05
2022-08-16T20:43:30.214Z,1.80
2022-08-16T20:46:05.204Z,2.63
2022-08-16T20:48:40.244Z,2.75
2022-08-16T20:51:30.361Z,2.67
2022-08-16T20:54:22.756Z,2.05
2022-08-16T20:56:57.486Z,2.55
2022-08-16T20:59:34.313Z,2.20
2022-08-16T21:02:20.061Z,2.47
2022-08-16T21:04:55.600Z,2.35
2022-08-16T21:07:31.773Z,2.38
2022-08-16T21:10:15.615Z,2.42
2022-08-16T21:13:01.989Z,2.13
2022-08-16T21:15:40.205Z,2.38
2022-08-16T21:18:27.144Z,2.20
2022-08-16T21:22:03.739Z,2.40
2022-08-16T21:25:41.481Z,2.75
2022-08-16T21:28:40.070Z,2.53
2022-08-16T21:31:21.166Z,2.97
2022-08-16T21:33:56.947Z,2.83
2022-08-16T21:36:35.056Z,2.50
2022-08-16T21:39:50.930Z,2.95
2022-08-16T21:42:26.774Z,3.03
2022-08-16T21:45:03.757Z,2.63
2022-08-16T21:47:50.081Z,2.83
2022-08-16T21:50:25.596Z,2.42
2022-08-16T21:53:13.413Z,2.72
2022-08-16T21:55:57.446Z,3.00
2022-08-16T21:58:33.327Z,2.90
2022-08-16T22:01:08.498Z,2.53
2022-08-16T22:03:45.910Z,2.47
2022-08-16T22:06:39.394Z,2.90
2022-08-16T22:09:16.414Z,2.45
2022-08-16T22:11:51.126Z,2.90
2022-08-16T22:14:27.971Z,3.03
2022-08-16T22:17:03.124Z,2.38
2022-08-16T22:19:39.868Z,3.05
2022-08-16T22:22:15.445Z,3.17
2022-08-16T22:24:49.952Z,3.00
2022-08-16T22:27:28.502Z,3.15
2022-08-16T22:30:03.384Z,2.85
2022-08-16T22:32:44.134Z,3.38
2022-08-16T22:35:21.817Z,2.85
2022-08-16T22:38:50.525Z,2.65
2022-08-16T22:40:53.464Z,2.70
2022-08-16T22:43:29.944Z,2.50
2022-08-16T22:46:09.181Z,3.33
2022-08-16T22:48:45.921Z,3.25
2022-08-16T22:51:24.337Z,3.10
2022-08-16T22:54:34.192Z,3.35
2022-08-16T22:57:20.110Z,2.97
2022-08-16T22:59:55.067Z,2.95
2022-08-16T23:02:33.153Z,2.78
2022-08-16T23:06:24.534Z,3.03
2022-08-16T23:09:01.961Z,2.47
2022-08-16T23:11:45.267Z,2.80
2022-08-16T23:14:27.656Z,3.13
2022-08-16T23:17:32.668Z,3.05
2022-08-16T23:20:56.698Z,3.22
2022-08-16T23:23:32.184Z,3.00
2022-08-16T23:26:43.774Z,2.90
2022-08-16T23:29:23.305Z,2.55
2022-08-16T23:32:13.318Z,2.60
2022-08-16T23:35:15.433Z,2.60
2022-08-16T23:37:51.758Z,2.63
2022-08-16T23:40:28.681Z,2.90
2022-08-16T23:43:09.620Z,2.88
2022-08-16T23:46:01.255Z,3.13
2022-08-16T23:49:57.198Z,2.90
2022-08-16T23:51:45.402Z,2.55
2022-08-16T23:55:36.593Z,2.60
2022-08-16T23:58:40.102Z,3.22
